Laytonville Rancheria, California
Current Conditions -  °F | °C
As of 4:31 PM on Friday 21 Nov 2014 (Local Time) from KUKI Reporting Station
Haze Haze  
Wind Chill: 52°   Ceiling: 600
Heat Index: 52°   Visibility: 3mi
Dew Point: 50°   Wind: 0mph
Humidity: 93%   Direction: NA
Pressure: 30.07"   Gusts: NA
Location:  39.6519°N, 123.451°W
Report Text: KUKI 220031Z AUTO 00000KT 3SM BR OVC006 11/10 A3007 RMK AO2 RAE16 CIG 003V009 P0001 T01110100
Loading
Personal Weather Stations






























Interactive Weather Map New forecast layout! Learn more

10-Day Weather Forecast

Advertisements
Track Severe Weather on mobile